Time;durP1;ratioP1;P1;durP2;ratioP2;P2;SDS_P1;SDS_P2;PMS_P1;PMS_P2;Temp;Humidity;BMP_temperature;BMP_pressure;BME280_temperature;BME280_humidity;BME280_pressure;Samples;Min_cycle;Max_cycle;Signal;HPM_P1;HPM_P2
2023/06/10 00:00:12;;;;;;;16.08;10.05;;;;;;;16.36;87.91;97237.63;10249709;28;20058;-50
2023/06/10 00:05:11;;;;;;;14.73;11.25;;;;;;;16.18;88.91;97233.84;10250080;28;20069;-51
2023/06/10 00:10:11;;;;;;;17.58;12.95;;;;;;;16.17;89.08;97234.75;10248294;28;20030;-49
2023/06/10 00:15:10;;;;;;;17.25;12.50;;;;;;;15.82;88.73;97192.22;10248936;28;20470;-52
2023/06/10 00:20:13;;;;;;;15.57;12.32;;;;;;;16.00;88.59;97238.75;10249472;28;20054;-48
2023/06/10 00:25:12;;;;;;;18.27;11.68;;;;;;;15.99;88.42;97255.34;10248411;28;20064;-51
2023/06/10 00:30:11;;;;;;;14.68;11.38;;;;;;;16.05;88.26;97244.72;10248771;28;20109;-52
2023/06/10 00:35:10;;;;;;;14.32;11.88;;;;;;;16.10;88.12;97241.94;10248938;28;20525;-50
2023/06/10 00:40:10;;;;;;;14.50;11.50;;;;;;;16.15;88.27;97237.41;10248183;28;20466;-51
2023/06/10 00:45:09;;;;;;;14.43;9.63;;;;;;;16.24;87.95;97242.38;10245296;28;20456;-50
2023/06/10 00:50:09;;;;;;;12.82;9.77;;;;;;;16.28;87.81;97243.13;10244499;28;20129;-48
2023/06/10 00:55:08;;;;;;;14.23;10.07;;;;;;;16.40;87.71;97244.50;10244111;28;20130;-50
2023/06/10 01:00:08;;;;;;;11.90;9.27;;;;;;;16.29;87.56;97242.22;10244655;28;20125;-50
2023/06/10 01:05:09;;;;;;;15.20;10.10;;;;;;;16.42;87.61;97261.88;10243737;28;20077;-51
2023/06/10 01:10:28;;;;;;;17.60;10.63;;;;;;;16.43;87.75;97266.19;10243642;28;20069;-49
2023/06/10 01:15:29;;;;;;;20.42;10.18;;;;;;;16.22;89.01;97253.78;10243184;28;20145;-50
2023/06/10 01:20:31;;;;;;;20.58;11.65;;;;;;;16.16;89.04;97259.22;10244369;28;20155;-52
2023/06/10 01:25:32;;;;;;;19.02;10.52;;;;;;;16.20;89.35;97269.53;10244317;28;20121;-51
2023/06/10 01:30:40;;;;;;;17.23;10.43;;;;;;;16.19;89.31;97272.22;10244169;28;20073;-50
2023/06/10 01:35:43;;;;;;;16.75;11.52;;;;;;;16.22;89.68;97253.78;10243274;28;20158;-50
2023/06/10 01:40:42;;;;;;;15.38;11.02;;;;;;;15.94;89.21;97194.44;10243136;28;20060;-52
2023/06/10 01:45:42;;;;;;;14.88;10.07;;;;;;;16.16;89.79;97259.22;10242967;28;20077;-50
2023/06/10 01:50:41;;;;;;;25.45;11.15;;;;;;;16.04;90.96;97256.09;10242280;28;20142;-51
2023/06/10 01:55:39;;;;;;;22.80;11.95;;;;;;;16.03;90.81;97251.75;10243418;28;20034;-50
2023/06/10 02:00:38;;;;;;;;;;;;;;;16.04;90.79;97266.56;10243394;28;20114;-51
2023/06/10 02:05:37;;;;;;;15.97;12.10;;;;;;;16.06;90.94;97251.63;10242759;28;20626;-51
2023/06/10 02:10:36;;;;;;;17.70;11.35;;;;;;;16.21;90.49;97260.78;10242753;28;20122;-51
2023/06/10 02:15:35;;;;;;;19.83;12.77;;;;;;;16.24;90.52;97263.31;10246038;28;20046;-51
2023/06/10 02:20:34;;;;;;;20.65;13.20;;;;;;;16.28;91.06;97254.47;10250868;28;20030;-48
2023/06/10 02:25:33;;;;;;;17.40;12.32;;;;;;;16.34;91.38;97253.41;10249704;28;20089;-51
2023/06/10 02:30:32;;;;;;;16.52;12.13;;;;;;;16.33;91.97;97246.47;10249379;28;20034;-52
2023/06/10 02:35:31;;;;;;;23.23;12.02;;;;;;;16.27;92.83;97241.41;10249458;28;20026;-51
2023/06/10 02:40:30;;;;;;;18.88;11.75;;;;;;;16.38;92.49;97255.00;10249571;28;20034;-50
2023/06/10 02:45:29;;;;;;;17.30;10.68;;;;;;;16.43;92.22;97241.78;10266904;28;20081;-49
2023/06/10 02:50:28;;;;;;;17.83;11.43;;;;;;;16.47;92.41;97246.88;10252041;28;20046;-49
2023/06/10 02:55:27;;;;;;;18.05;12.82;;;;;;;16.48;92.60;97242.47;10252503;28;20076;-49
2023/06/10 03:00:26;;;;;;;14.93;12.27;;;;;;;16.52;92.71;97250.19;10252006;28;20033;-50
2023/06/10 03:05:25;;;;;;;15.05;11.55;;;;;;;16.58;91.89;97256.13;10252021;28;20108;-51
2023/06/10 03:10:25;;;;;;;14.40;10.68;;;;;;;16.22;93.11;97259.03;10251343;28;20140;-51
2023/06/10 03:15:24;;;;;;;20.83;13.02;;;;;;;15.56;96.58;97237.44;10251233;28;20134;-51
2023/06/10 03:20:23;;;;;;;21.05;14.65;;;;;;;15.45;99.50;97284.81;10251443;28;20509;-49
2023/06/10 03:25:22;;;;;;;25.95;15.75;;;;;;;15.54;99.67;97289.78;10249939;28;20030;-48
2023/06/10 03:30:21;;;;;;;;;;;;;;;15.74;98.96;97283.13;10251614;28;20410;-51
2023/06/10 03:35:20;;;;;;;16.57;11.60;;;;;;;15.88;98.00;97283.63;10250699;28;19961;-50
2023/06/10 03:40:19;;;;;;;20.50;12.75;;;;;;;16.00;97.72;97282.41;10250732;28;20473;-52
2023/06/10 03:45:18;;;;;;;18.02;13.20;;;;;;;16.13;97.58;97278.50;10247855;28;20458;-50
2023/06/10 03:50:17;;;;;;;25.13;13.60;;;;;;;16.24;97.23;97283.41;10245863;28;20038;-51
2023/06/10 03:55:16;;;;;;;21.77;13.13;;;;;;;16.22;96.50;97269.50;10246794;28;20754;-52
2023/06/10 04:00:17;;;;;;;23.05;14.65;;;;;;;16.13;96.95;97281.09;10247002;28;20161;-52
2023/06/10 04:05:17;;;;;;;26.40;13.55;;;;;;;16.17;96.90;97272.25;10246661;28;20077;-50
2023/06/10 04:10:16;;;;;;;18.05;13.07;;;;;;;16.19;97.20;97280.06;10246133;28;20506;-51
2023/06/10 04:15:15;;;;;;;28.05;15.38;;;;;;;16.39;97.37;97277.66;10245891;28;20477;-51
2023/06/10 04:20:15;;;;;;;19.52;12.98;;;;;;;16.56;96.69;97273.66;10245500;28;20073;-52
2023/06/10 04:25:14;;;;;;;20.70;14.90;;;;;;;16.65;96.14;97271.59;10246247;28;20466;-52
2023/06/10 04:30:13;;;;;;;20.83;14.95;;;;;;;16.76;95.87;97273.00;10245248;28;20481;-51
2023/06/10 04:35:13;;;;;;;28.52;16.27;;;;;;;16.87;94.61;97277.00;10244926;28;20146;-51
2023/06/10 04:40:13;;;;;;;20.90;14.40;;;;;;;16.52;94.70;97246.72;10244825;28;20142;-51
2023/06/10 04:45:12;;;;;;;24.05;14.77;;;;;;;16.85;94.27;97278.81;10245559;28;20077;-51
2023/06/10 04:50:11;;;;;;;16.20;13.32;;;;;;;16.91;93.35;97280.34;10242172;28;20061;-51
2023/06/10 04:55:10;;;;;;;18.38;13.35;;;;;;;17.02;93.21;97280.84;10244757;28;20125;-51
2023/06/10 05:00:10;;;;;;;18.83;14.18;;;;;;;16.96;92.50;97244.38;10242738;28;20445;-52
2023/06/10 05:05:09;;;;;;;19.52;14.15;;;;;;;17.34;91.87;97277.09;10243451;28;20068;-51
2023/06/10 05:10:09;;;;;;;18.23;13.32;;;;;;;17.50;91.62;97261.69;10243338;28;20133;-49
2023/06/10 05:15:08;;;;;;;22.00;15.23;;;;;;;17.81;91.19;97268.44;10243153;28;20121;-49
2023/06/10 05:20:08;;;;;;;20.33;16.13;;;;;;;17.96;89.27;97267.88;10242870;28;20138;-49
2023/06/10 05:25:08;;;;;;;28.40;18.55;;;;;;;17.80;89.84;97273.72;10243286;28;20109;-49
2023/06/10 05:30:08;;;;;;;21.40;17.00;;;;;;;17.62;90.53;97265.63;10243093;28;20544;-52
2023/06/10 05:35:07;;;;;;;22.13;16.25;;;;;;;17.51;91.26;97271.25;10245184;28;20077;-51
2023/06/10 05:40:06;;;;;;;21.05;16.50;;;;;;;17.62;90.55;97273.50;10242801;28;20069;-50
2023/06/10 05:45:06;;;;;;;17.38;14.20;;;;;;;17.51;89.30;97266.00;10242832;28;20076;-48
2023/06/10 05:50:09;;;;;;;22.65;16.67;;;;;;;17.81;87.59;97271.06;10244996;28;20161;-48
2023/06/10 05:55:09;;;;;;;24.23;16.83;;;;;;;17.72;88.40;97264.34;10254464;28;20599;-48
2023/06/10 06:00:09;;;;;;;17.63;11.68;;;;;;;18.02;85.22;97279.88;10253938;28;20077;-51
2023/06/10 06:05:08;;;;;;;16.50;13.32;;;;;;;18.43;83.98;97272.13;10254297;28;20069;-51
2023/06/10 06:10:07;;;;;;;17.30;12.63;;;;;;;18.91;82.90;97276.34;10248841;28;20148;-52
2023/06/10 06:15:08;;;;;;;24.30;13.50;;;;;;;19.27;80.64;97270.41;10253302;28;20068;-48
2023/06/10 06:20:07;;;;;;;18.02;14.85;;;;;;;19.85;80.86;97272.25;10252840;28;20535;-51
2023/06/10 06:25:06;;;;;;;16.42;12.70;;;;;;;20.29;77.79;97266.66;10253329;28;20058;-51
2023/06/10 06:30:06;;;;;;;14.20;12.00;;;;;;;20.66;75.06;97271.03;10252368;28;20068;-51
2023/06/10 06:35:07;;;;;;;14.57;12.05;;;;;;;20.98;70.78;97254.53;10252701;28;20085;-52
2023/06/10 06:40:07;;;;;;;16.17;11.45;;;;;;;21.12;69.61;97252.91;10252490;28;20070;-49
2023/06/10 06:45:06;;;;;;;17.90;13.50;;;;;;;21.39;68.59;97249.78;10248650;28;20517;-50
2023/06/10 06:50:05;;;;;;;15.73;12.15;;;;;;;21.42;66.71;97248.75;10248103;28;20506;-50
2023/06/10 06:55:05;;;;;;;18.08;12.13;;;;;;;21.49;67.26;97242.22;10249242;28;20129;-48
2023/06/10 07:00:05;;;;;;;16.95;12.02;;;;;;;21.58;66.31;97248.81;10248056;28;20064;-50
2023/06/10 07:05:05;;;;;;;15.88;10.13;;;;;;;21.83;64.56;97243.91;10248710;28;20478;-49
2023/06/10 07:10:04;;;;;;;14.50;10.00;;;;;;;22.00;62.98;97235.09;10248813;28;20130;-51
2023/06/10 07:15:04;;;;;;;12.82;9.98;;;;;;;22.09;62.52;97239.00;10247564;28;20125;-49
2023/06/10 07:20:03;;;;;;;14.88;11.75;;;;;;;22.46;61.46;97234.25;10244423;28;20138;-51
2023/06/10 07:25:03;;;;;;;17.33;10.40;;;;;;;22.65;60.54;97232.28;10247601;28;20157;-51
2023/06/10 07:30:02;;;;;;;15.20;9.48;;;;;;;22.55;58.37;97231.09;10247770;28;20907;-51
2023/06/10 07:35:02;;;;;;;13.85;7.88;;;;;;;22.38;59.63;97195.91;10244317;28;20509;-52
2023/06/10 07:40:00;;;;;;;16.00;7.65;;;;;;;22.63;57.99;97234.16;10243364;28;20136;-50
2023/06/10 07:44:59;;;;;;;11.60;7.53;;;;;;;22.38;60.08;97222.34;10246979;28;20044;-51
2023/06/10 07:49:58;;;;;;;8.52;6.90;;;;;;;22.43;57.60;97184.22;10246793;28;20282;-52
2023/06/10 07:54:57;;;;;;;8.30;6.07;;;;;;;22.87;54.67;97216.03;10242492;28;20108;-50
2023/06/10 07:59:57;;;;;;;9.82;5.68;;;;;;;22.92;54.55;97218.41;10245743;28;20140;-52
2023/06/10 08:04:56;;;;;;;9.65;4.93;;;;;;;23.07;53.39;97220.13;10242754;28;20138;-49
2023/06/10 08:09:55;;;;;;;6.93;4.70;;;;;;;22.96;51.69;97223.41;10245348;28;20451;-53
2023/06/10 08:14:54;;;;;;;7.57;4.63;;;;;;;22.92;53.34;97213.94;10243628;28;20117;-52
2023/06/10 08:19:53;;;;;;;6.82;5.10;;;;;;;23.16;52.93;97205.47;10245329;28;20133;-52
2023/06/10 08:24:52;;;;;;;6.70;4.07;;;;;;;23.70;52.80;97199.53;10242257;28;20026;-50
2023/06/10 08:29:51;;;;;;;6.25;4.50;;;;;;;24.32;51.71;97192.03;10244420;28;20486;-51
2023/06/10 08:34:50;;;;;;;6.07;4.68;;;;;;;24.41;52.71;97196.75;10244232;28;20054;-50
2023/06/10 08:39:49;;;;;;;8.07;4.80;;;;;;;24.25;47.43;97185.44;10243889;28;20128;-52
2023/06/10 08:45:00;;;;;;;6.03;4.40;;;;;;;24.33;47.52;97199.03;10246420;28;20080;-52
2023/06/10 08:50:03;;;;;;;7.97;4.45;;;;;;;24.32;45.74;97176.13;10248070;28;20073;-49
2023/06/10 08:55:19;;;;;;;5.32;3.85;;;;;;;24.20;46.23;97185.75;10246376;28;20162;-50
2023/06/10 09:00:19;;;;;;;5.97;4.03;;;;;;;24.10;45.31;97136.91;10248109;28;20505;-52
2023/06/10 09:05:18;;;;;;;8.07;4.93;;;;;;;24.52;44.67;97176.59;10246840;28;20058;-51
2023/06/10 09:10:18;;;;;;;7.32;4.10;;;;;;;24.96;44.59;97175.44;10246858;28;20069;-49
2023/06/10 09:15:17;;;;;;;7.40;3.90;;;;;;;25.21;42.96;97161.34;10247041;28;20066;-51
2023/06/10 09:20:16;;;;;;;7.05;4.00;;;;;;;25.41;41.79;97159.91;10246462;28;20081;-51
2023/06/10 09:25:15;;;;;;;5.25;3.88;;;;;;;25.88;42.58;97161.03;10245789;28;20054;-48
2023/06/10 09:30:28;;;;;;;7.55;3.97;;;;;;;26.39;43.17;97152.84;10239486;28;20581;-53
2023/06/10 09:35:29;;;;;;;7.00;4.00;;;;;;;26.20;39.67;97157.84;10246412;28;20526;-49
2023/06/10 09:40:28;;;;;;;5.78;3.75;;;;;;;25.93;39.06;97150.91;10246253;28;20509;-51
2023/06/10 09:45:31;;;;;;;6.75;4.10;;;;;;;25.67;40.12;97134.19;10243374;28;20505;-49
2023/06/10 09:50:34;;;;;;;7.38;4.10;;;;;;;25.35;40.69;97152.41;10243191;28;20081;-48
2023/06/10 09:55:33;;;;;;;8.02;4.47;;;;;;;25.11;40.88;97134.56;10242839;28;20137;-51
2023/06/10 10:00:33;;;;;;;7.13;3.90;;;;;;;25.23;41.66;97149.66;10243492;28;20477;-50
2023/06/10 10:05:32;;;;;;;6.15;4.22;;;;;;;25.31;43.22;97133.16;10242922;28;20137;-48
2023/06/10 10:10:31;;;;;;;6.63;4.28;;;;;;;25.27;42.57;97136.97;10241486;28;20125;-52
2023/06/10 10:15:34;;;;;;;8.02;4.10;;;;;;;25.45;42.65;97129.53;10242523;28;20137;-51
2023/06/10 10:20:39;;;;;;;9.70;4.93;;;;;;;24.93;43.39;97130.53;10243241;28;20062;-53
2023/06/10 10:25:41;;;;;;;5.65;3.90;;;;;;;25.04;43.03;97122.69;10242523;28;20117;-52
2023/06/10 10:30:42;;;;;;;6.63;4.32;;;;;;;25.09;42.49;97116.09;10243043;28;20525;-52
2023/06/10 10:35:43;;;;;;;5.93;3.97;;;;;;;25.15;42.83;97111.28;10244241;28;20503;-52
2023/06/10 10:40:44;;;;;;;5.50;4.15;;;;;;;25.04;41.89;97099.63;10248747;28;20129;-50
2023/06/10 10:45:46;;;;;;;4.85;3.90;;;;;;;25.40;42.41;97099.78;10248184;28;20076;-53
2023/06/10 10:50:56;;;;;;;5.70;3.70;;;;;;;25.43;39.92;97065.88;10249652;28;20851;-52
2023/06/10 10:56:08;;;;;;;5.38;3.70;;;;;;;25.52;41.97;97081.16;10248539;28;20525;-51
2023/06/10 11:01:11;;;;;;;5.80;3.80;;;;;;;25.58;41.53;97052.50;10249288;28;20101;-52
2023/06/10 11:06:15;;;;;;;7.13;4.00;;;;;;;26.13;40.90;97083.78;10248349;28;20121;-51
2023/06/10 11:11:25;;;;;;;8.10;3.72;;;;;;;26.49;39.78;97063.41;10248786;28;20085;-52
2023/06/10 11:16:26;;;;;;;6.13;3.90;;;;;;;26.07;38.75;97052.38;10248668;28;20133;-51
2023/06/10 11:21:25;;;;;;;5.53;3.95;;;;;;;25.95;39.85;97066.59;10247499;28;20350;-52
2023/06/10 11:26:31;;;;;;;7.45;4.10;;;;;;;25.95;39.19;97061.25;10247706;28;20109;-51
2023/06/10 11:31:44;;;;;;;7.32;4.25;;;;;;;25.95;40.51;97053.28;10247286;28;20084;-50
2023/06/10 11:36:45;;;;;;;4.38;3.42;;;;;;;26.06;39.23;97055.13;10247252;28;20545;-52
2023/06/10 11:41:45;;;;;;;8.07;3.88;;;;;;;25.69;38.42;97028.63;10247707;28;20074;-52
2023/06/10 11:46:45;;;;;;;7.57;4.28;;;;;;;26.00;39.55;97039.66;10245400;28;20177;-51
2023/06/10 11:51:49;;;;;;;5.05;3.70;;;;;;;26.48;39.46;97045.72;10247363;28;20073;-52
2023/06/10 11:56:50;;;;;;;5.65;4.10;;;;;;;26.66;38.75;97032.81;10246370;28;20125;-53
2023/06/10 12:01:49;;;;;;;6.70;4.43;;;;;;;27.01;38.08;97031.06;10246400;28;20053;-51
2023/06/10 12:06:51;;;;;;;6.25;4.25;;;;;;;27.01;38.44;97031.06;10245720;28;20030;-51
2023/06/10 12:12:02;;;;;;;7.38;4.15;;;;;;;26.56;39.94;97022.06;10246516;28;20141;-51
2023/06/10 12:17:00;;;;;;;6.13;4.38;;;;;;;26.60;39.88;97019.13;10246391;28;20077;-50
2023/06/10 12:22:01;;;;;;;6.22;4.30;;;;;;;26.69;40.90;97016.59;10245802;28;20032;-51
2023/06/10 12:27:00;;;;;;;5.28;3.65;;;;;;;26.70;40.88;97015.66;10245834;28;20905;-52
2023/06/10 12:32:05;;;;;;;5.40;3.90;;;;;;;26.73;41.68;97011.91;10245045;28;20540;-51
2023/06/10 12:37:13;;;;;;;9.63;4.00;;;;;;;26.65;39.36;97001.00;10245280;28;20121;-52
2023/06/10 12:42:12;;;;;;;6.75;3.95;;;;;;;26.40;41.35;96986.13;10245797;28;20061;-51
2023/06/10 12:47:14;;;;;;;7.30;4.18;;;;;;;26.28;40.55;97006.53;10244151;28;20601;-52
2023/06/10 12:52:13;;;;;;;6.03;4.00;;;;;;;26.36;40.77;96996.97;10244784;28;20072;-51
2023/06/10 12:57:12;;;;;;;5.43;3.92;;;;;;;26.44;39.81;97000.84;10243546;28;20056;-51
2023/06/10 13:02:12;;;;;;;7.78;3.95;;;;;;;26.70;39.83;96994.34;10245093;28;20561;-52
2023/06/10 13:07:12;;;;;;;5.97;3.80;;;;;;;27.15;39.73;96996.19;10243730;28;20129;-52
2023/06/10 13:12:12;;;;;;;6.65;4.07;;;;;;;26.70;39.14;96993.53;10244236;28;20134;-49
2023/06/10 13:17:11;;;;;;;6.95;4.10;;;;;;;26.78;39.20;96991.94;10243530;28;20133;-50
2023/06/10 13:22:09;;;;;;;5.95;4.20;;;;;;;26.70;38.66;96988.19;10243565;28;20030;-51
2023/06/10 13:27:09;;;;;;;7.72;3.85;;;;;;;26.69;39.45;96992.66;10242493;28;20145;-53
2023/06/10 13:32:08;;;;;;;5.95;3.72;;;;;;;26.55;39.52;96958.28;10243726;28;20129;-54
2023/06/10 13:37:07;;;;;;;6.32;3.63;;;;;;;26.52;38.92;96988.66;10242876;28;20561;-51
2023/06/10 13:42:07;;;;;;;5.68;4.10;;;;;;;26.53;38.74;96987.72;10244582;28;20563;-51
2023/06/10 13:47:06;;;;;;;6.20;4.07;;;;;;;26.33;39.88;96986.56;10246118;28;20077;-52
2023/06/10 13:52:06;;;;;;;6.40;3.45;;;;;;;26.36;40.21;96980.16;10247455;28;20541;-50
2023/06/10 13:57:06;;;;;;;8.45;3.90;;;;;;;26.40;38.55;96984.28;10246569;28;20070;-51
2023/06/10 14:02:05;;;;;;;8.60;4.53;;;;;;;26.53;37.83;96979.72;10247072;28;20506;-53
2023/06/10 14:07:04;;;;;;;5.95;4.50;;;;;;;26.62;38.72;96969.31;10246354;28;20474;-51
2023/06/10 14:12:03;;;;;;;5.45;3.88;;;;;;;26.51;37.87;96971.00;10243924;28;20117;-53
2023/06/10 14:17:04;;;;;;;7.10;4.00;;;;;;;26.37;38.75;96968.59;10252808;28;20193;-48
2023/06/10 14:22:03;;;;;;;7.55;4.32;;;;;;;26.43;38.19;96951.28;10255159;28;20080;-50
2023/06/10 14:27:02;;;;;;;5.82;3.75;;;;;;;26.24;38.18;96957.19;10252571;28;20069;-52
2023/06/10 14:32:02;;;;;;;7.32;3.92;;;;;;;26.21;37.61;96960.94;10253188;28;20061;-52
2023/06/10 14:37:03;;;;;;;6.07;3.97;;;;;;;26.21;38.97;96962.75;10252088;28;20062;-52
2023/06/10 14:42:02;;;;;;;6.00;3.80;;;;;;;26.34;38.17;96958.16;10252534;28;20082;-52
2023/06/10 14:47:01;;;;;;;5.55;4.00;;;;;;;26.55;38.31;96956.47;10248324;28;20125;-52
2023/06/10 14:52:00;;;;;;;6.32;3.92;;;;;;;26.96;38.08;96949.72;10249810;28;20050;-52
2023/06/10 14:56:59;;;;;;;6.35;4.05;;;;;;;26.94;35.76;96946.34;10248157;28;20030;-52
2023/06/10 15:02:00;;;;;;;5.82;3.88;;;;;;;27.05;35.80;96952.59;10248673;28;20046;-51
2023/06/10 15:06:59;;;;;;;7.60;3.85;;;;;;;26.94;36.88;96950.81;10248279;28;20173;-52
2023/06/10 15:11:59;;;;;;;5.07;3.78;;;;;;;26.73;36.65;96945.34;10248360;28;20042;-52
2023/06/10 15:16:59;;;;;;;6.82;4.18;;;;;;;26.66;36.52;96941.50;10248026;28;20552;-49
2023/06/10 15:21:58;;;;;;;5.95;3.75;;;;;;;26.82;37.59;96938.47;10247190;28;20129;-51
2023/06/10 15:26:57;;;;;;;5.53;3.90;;;;;;;26.76;36.73;96939.78;10247523;28;20065;-51
2023/06/10 15:31:56;;;;;;;6.43;4.03;;;;;;;26.81;37.08;96948.25;10247716;28;20262;-51
2023/06/10 15:36:54;;;;;;;6.45;4.35;;;;;;;26.83;37.27;96946.34;10243574;28;20045;-52
2023/06/10 15:41:53;;;;;;;7.20;4.13;;;;;;;27.02;36.90;96955.53;10242234;28;20038;-51
2023/06/10 15:46:52;;;;;;;10.02;5.85;;;;;;;27.26;37.24;96955.34;10244894;28;20133;-49
2023/06/10 15:51:51;;;;;;;5.97;4.07;;;;;;;27.19;36.97;96947.03;10245339;28;20041;-53
2023/06/10 15:56:50;;;;;;;6.90;4.70;;;;;;;27.07;38.12;96953.31;10245557;28;20485;-51
2023/06/10 16:01:49;;;;;;;6.72;4.47;;;;;;;27.10;38.05;96956.59;10243318;28;20505;-50
2023/06/10 16:06:49;;;;;;;7.70;4.50;;;;;;;26.75;37.89;96954.06;10242695;28;20485;-51
2023/06/10 16:11:47;;;;;;;8.73;4.00;;;;;;;26.44;37.89;96964.47;10242558;28;20137;-50
2023/06/10 16:16:46;;;;;;;5.72;4.05;;;;;;;26.11;38.90;96973.19;10243133;28;20170;-52
2023/06/10 16:21:46;;;;;;;5.40;3.92;;;;;;;26.02;39.04;96979.22;10244308;28;20070;-52
2023/06/10 16:26:45;;;;;;;8.43;4.43;;;;;;;26.06;40.19;96984.19;10243763;28;20130;-51
2023/06/10 16:31:44;;;;;;;7.20;4.53;;;;;;;26.03;38.45;96986.25;10240541;28;20458;-53
2023/06/10 16:36:42;;;;;;;7.28;4.18;;;;;;;26.04;39.48;96974.63;10257772;28;20353;-51
2023/06/10 16:41:41;;;;;;;7.28;4.22;;;;;;;26.02;40.23;96971.22;10242837;28;20058;-50
2023/06/10 16:46:40;;;;;;;10.43;4.28;;;;;;;26.08;40.25;96990.22;10245619;28;20036;-50
2023/06/10 16:51:39;;;;;;;9.63;4.90;;;;;;;26.07;40.83;96990.38;10246199;28;20538;-50
2023/06/10 16:56:38;;;;;;;5.95;4.35;;;;;;;26.14;41.12;97000.41;10245205;28;20031;-52
2023/06/10 17:01:37;;;;;;;9.18;4.28;;;;;;;26.20;41.76;97008.91;10243277;28;20058;-51
2023/06/10 17:06:36;;;;;;;6.00;4.07;;;;;;;26.09;42.12;97013.22;10245338;28;20058;-52
2023/06/10 17:11:35;;;;;;;6.55;4.70;;;;;;;25.79;42.77;97020.84;10244543;28;20060;-51
2023/06/10 17:16:34;;;;;;;6.22;4.47;;;;;;;25.55;44.42;97024.34;10244622;28;20029;-52
2023/06/10 17:21:33;;;;;;;4.65;4.10;;;;;;;25.29;45.52;97034.16;10244767;28;20416;-51
2023/06/10 17:26:32;;;;;;;6.05;3.70;;;;;;;25.09;45.62;97019.66;10244866;28;20028;-52
2023/06/10 17:31:31;;;;;;;7.28;4.32;;;;;;;24.87;46.69;97029.16;10244746;28;20129;-52
2023/06/10 17:36:29;;;;;;;6.53;4.32;;;;;;;24.68;47.72;97028.69;10243622;28;20038;-51
2023/06/10 17:41:28;;;;;;;8.60;4.55;;;;;;;24.38;47.40;97026.38;10242581;28;20113;-50
2023/06/10 17:46:27;;;;;;;6.38;4.10;;;;;;;24.22;47.50;97029.25;10244876;28;20493;-48
2023/06/10 17:51:26;;;;;;;7.97;4.20;;;;;;;24.02;48.77;97031.38;10248674;28;20168;-50
2023/06/10 17:56:26;;;;;;;7.05;4.70;;;;;;;23.83;49.72;97029.09;10249174;28;20042;-51
2023/06/10 18:01:25;;;;;;;9.27;5.65;;;;;;;23.69;50.30;97030.97;10249735;28;20082;-50
2023/06/10 18:06:26;;;;;;;8.63;5.50;;;;;;;23.55;50.54;97034.53;10250741;28;20100;-50
2023/06/10 18:11:26;;;;;;;8.07;5.25;;;;;;;23.47;51.32;97035.03;10250376;28;20124;-51
2023/06/10 18:16:26;;;;;;;9.15;6.47;;;;;;;23.33;51.57;97042.97;10250490;28;20133;-51
2023/06/10 18:21:25;;;;;;;6.28;5.10;;;;;;;23.15;52.88;97043.19;10250383;28;20101;-52
2023/06/10 18:26:25;;;;;;;7.03;4.45;;;;;;;23.01;53.05;97054.63;10249494;28;20042;-50
2023/06/10 18:31:24;;;;;;;8.48;5.15;;;;;;;22.91;54.24;97055.31;10249230;28;20528;-51
2023/06/10 18:36:23;;;;;;;8.25;5.15;;;;;;;22.79;54.13;97060.41;10249398;28;20255;-51
2023/06/10 18:41:23;;;;;;;8.15;5.20;;;;;;;22.34;59.83;97085.16;10249119;28;20336;-51
2023/06/10 18:46:22;;;;;;;6.97;5.10;;;;;;;21.91;62.25;97077.06;10248151;28;20582;-50
2023/06/10 18:51:22;;;;;;;7.18;4.82;;;;;;;21.41;62.08;97049.94;10246058;28;20481;-51
2023/06/10 18:56:21;;;;;;;8.23;5.47;;;;;;;21.57;62.10;97088.66;10245928;28;20097;-51
2023/06/10 19:01:20;;;;;;;7.10;4.93;;;;;;;21.61;61.86;97095.50;10245192;28;20054;-49
2023/06/10 19:06:19;;;;;;;7.47;5.07;;;;;;;21.40;61.97;97103.66;10246176;28;20026;-51
2023/06/10 19:11:18;;;;;;;8.77;5.38;;;;;;;21.42;62.05;97116.78;10245869;28;20480;-50
2023/06/10 19:16:17;;;;;;;8.40;5.40;;;;;;;21.38;61.77;97120.53;10245248;28;20505;-51
2023/06/10 19:21:16;;;;;;;7.05;5.07;;;;;;;21.31;62.29;97120.88;10245004;28;21389;-51
2023/06/10 19:26:15;;;;;;;10.30;5.43;;;;;;;21.36;62.06;97128.53;10244416;28;20414;-50
2023/06/10 19:31:14;;;;;;;10.90;4.97;;;;;;;21.33;61.97;97128.69;10245456;28;20077;-49
2023/06/10 19:36:13;;;;;;;10.13;6.63;;;;;;;21.29;62.22;97132.44;10245321;28;20126;-51
2023/06/10 19:41:12;;;;;;;10.07;6.30;;;;;;;21.21;63.02;97132.00;10245492;28;20046;-50
2023/06/10 19:46:11;;;;;;;13.10;5.97;;;;;;;21.22;62.64;97133.69;10247207;28;20025;-50
2023/06/10 19:51:10;;;;;;;11.68;6.15;;;;;;;21.16;62.99;97139.28;10213382;28;1108842;-49
2023/06/10 19:56:11;;;;;;;11.13;6.75;;;;;;;21.16;63.51;97134.00;10248912;28;20117;-51
2023/06/10 20:01:10;;;;;;;10.45;5.85;;;;;;;21.10;63.65;97128.13;10247966;28;20061;-51
2023/06/10 20:06:10;;;;;;;8.93;6.68;;;;;;;21.00;64.25;97131.31;10248512;28;20311;-54
2023/06/10 20:11:08;;;;;;;8.02;6.10;;;;;;;20.87;65.53;97141.69;10247550;28;20482;-51
2023/06/10 20:16:09;;;;;;;9.23;6.03;;;;;;;20.83;65.74;97134.84;10249260;28;20403;-51
2023/06/10 20:21:08;;;;;;;8.88;6.10;;;;;;;20.77;65.83;97135.16;10248936;28;20073;-51
2023/06/10 20:26:07;;;;;;;10.88;6.07;;;;;;;20.71;66.09;97142.47;10247460;28;20038;-51
2023/06/10 20:31:06;;;;;;;8.48;5.72;;;;;;;20.67;66.54;97135.63;10248027;28;20036;-50
2023/06/10 20:36:05;;;;;;;9.02;5.68;;;;;;;20.62;66.49;97137.66;10248139;28;20038;-51
2023/06/10 20:41:04;;;;;;;8.10;6.35;;;;;;;20.57;66.60;97144.97;10248895;28;20070;-51
2023/06/10 20:46:04;;;;;;;11.88;6.72;;;;;;;20.52;66.68;97141.72;10244477;28;20029;-49
2023/06/10 20:51:02;;;;;;;10.32;6.82;;;;;;;20.48;67.17;97141.00;10244506;28;20069;-51
2023/06/10 20:56:01;;;;;;;9.70;7.03;;;;;;;20.41;67.64;97133.50;10243883;28;20050;-50
2023/06/10 21:01:01;;;;;;;9.63;6.40;;;;;;;20.31;67.64;97117.25;10244440;28;20104;-51
2023/06/10 21:06:00;;;;;;;9.80;6.75;;;;;;;20.39;67.97;97140.59;10245282;28;20070;-51
2023/06/10 21:10:59;;;;;;;9.90;6.68;;;;;;;20.33;68.06;97140.88;10243948;28;20077;-51
2023/06/10 21:15:58;;;;;;;8.63;6.45;;;;;;;20.22;68.37;97134.38;10243443;28;20097;-51
2023/06/10 21:20:57;;;;;;;8.23;6.25;;;;;;;20.14;68.90;97136.56;10241033;28;20050;-50
2023/06/10 21:25:56;;;;;;;10.68;6.90;;;;;;;20.08;69.40;97129.78;10235778;28;20597;-52
2023/06/10 21:30:55;;;;;;;9.60;7.43;;;;;;;20.05;69.40;97126.47;10242021;28;20531;-48
2023/06/10 21:35:54;;;;;;;15.50;7.68;;;;;;;19.95;70.14;97127.81;10241960;28;20181;-49
2023/06/10 21:40:54;;;;;;;8.75;6.80;;;;;;;19.99;70.78;97124.13;10243225;28;20133;-51
2023/06/10 21:45:53;;;;;;;10.02;6.45;;;;;;;19.97;70.17;97128.59;10242514;28;20137;-51
2023/06/10 21:50:52;;;;;;;10.70;7.25;;;;;;;19.93;70.67;97122.66;10234784;28;20121;-51
2023/06/10 21:55:51;;;;;;;11.65;7.07;;;;;;;19.94;71.67;97123.50;10242787;28;20038;-51
2023/06/10 22:00:50;;;;;;;12.35;8.45;;;;;;;19.90;72.39;97127.19;10242126;28;20053;-52
2023/06/10 22:05:49;;;;;;;11.40;8.32;;;;;;;19.83;73.67;97119.59;10236532;28;20105;-48
2023/06/10 22:10:48;;;;;;;14.15;8.93;;;;;;;19.76;74.77;97120.81;10237491;28;20117;-51
2023/06/10 22:15:47;;;;;;;12.75;8.90;;;;;;;19.69;75.63;97129.94;10235792;28;20157;-51
2023/06/10 22:20:46;;;;;;;13.85;8.95;;;;;;;19.61;76.44;97126.81;10236316;28;20057;-50
2023/06/10 22:25:45;;;;;;;14.13;9.30;;;;;;;19.54;77.69;97125.38;10241303;28;20061;-51
2023/06/10 22:30:45;;;;;;;14.10;9.15;;;;;;;19.49;78.52;97127.38;10243213;28;20752;-49
2023/06/10 22:35:44;;;;;;;11.90;7.93;;;;;;;19.39;78.47;97111.16;10250190;28;20157;-51
2023/06/10 22:40:43;;;;;;;11.43;7.65;;;;;;;19.40;77.36;97118.97;10250282;28;20082;-51
2023/06/10 22:45:42;;;;;;;10.10;8.00;;;;;;;19.43;76.99;97124.09;10249263;28;20072;-50
2023/06/10 22:50:41;;;;;;;11.27;7.80;;;;;;;19.35;77.18;97110.44;10249471;28;20074;-51
2023/06/10 22:55:40;;;;;;;10.80;7.55;;;;;;;19.28;78.12;97118.72;10248014;28;20046;-51
2023/06/10 23:00:39;;;;;;;12.13;7.68;;;;;;;19.19;78.15;97112.09;10248339;28;20527;-50